Time;durP1;ratioP1;P1;durP2;ratioP2;P2;SDS_P1;SDS_P2;PMS_P1;PMS_P2;Temp;Humidity;BMP_temperature;BMP_pressure;BME280_temperature;BME280_humidity;BME280_pressure;Samples;Min_cycle;Max_cycle;Signal;HPM_P1;HPM_P2
2021/07/21 00:00:31;;;;;;;22.02;11.85;;;;;;;17.16;100.00;98036.20;1676986;83;21039;-62
2021/07/21 00:02:59;;;;;;;21.85;13.25;;;;;;;17.16;100.00;98038.06;1699469;82;21062;-60
2021/07/21 00:05:27;;;;;;;20.75;11.95;;;;;;;17.16;100.00;98038.86;1677262;83;21538;-64
2021/07/21 00:07:57;;;;;;;25.90;12.28;;;;;;;17.16;100.00;98021.55;1678850;83;21595;-59
2021/07/21 00:10:26;;;;;;;23.20;12.18;;;;;;;17.11;100.00;98032.74;1687037;82;21062;-61
2021/07/21 00:15:46;;;;;;;23.57;12.60;;;;;;;16.97;100.00;98033.81;1683162;83;21030;-63
2021/07/21 00:18:20;;;;;;;22.80;12.33;;;;;;;16.92;100.00;98023.20;1687354;83;21062;-58
2021/07/21 00:20:48;;;;;;;21.97;11.78;;;;;;;16.89;100.00;98025.05;1679608;83;21020;-57
2021/07/21 00:23:16;;;;;;;22.42;12.33;;;;;;;16.87;100.00;98008.03;1685521;83;21051;-62
2021/07/21 00:25:45;;;;;;;22.05;12.30;;;;;;;16.85;100.00;98018.66;1687915;82;21593;-58
2021/07/21 00:28:14;;;;;;;23.22;12.25;;;;;;;16.84;100.00;98024.52;1681074;83;21585;-61
2021/07/21 00:30:43;;;;;;;24.85;13.30;;;;;;;16.83;100.00;98029.59;1689416;82;21055;-61
2021/07/21 00:33:12;;;;;;;25.52;12.90;;;;;;;16.82;100.00;98020.02;1686167;82;21010;-62
2021/07/21 00:35:40;;;;;;;24.45;11.93;;;;;;;16.84;100.00;98017.08;1689821;84;21022;-61
2021/07/21 00:38:07;;;;;;;24.40;12.40;;;;;;;16.85;100.00;98021.33;1691144;84;21154;-62
2021/07/21 00:40:35;;;;;;;26.52;14.18;;;;;;;16.83;100.00;98020.80;1680539;84;21146;-58
2021/07/21 00:43:03;;;;;;;22.90;13.35;;;;;;;16.80;100.00;98010.14;1673207;83;21113;-51
2021/07/21 00:45:31;;;;;;;24.40;12.85;;;;;;;16.81;100.00;98013.63;1687394;84;21050;-59
2021/07/21 00:47:59;;;;;;;25.90;13.48;;;;;;;16.82;100.00;98017.35;1682212;82;21063;-61
2021/07/21 00:50:27;;;;;;;22.55;13.20;;;;;;;16.81;100.00;98030.94;1693432;83;21070;-62
2021/07/21 00:52:55;;;;;;;24.02;13.55;;;;;;;16.80;100.00;98026.66;1678798;82;21112;-61
2021/07/21 00:55:24;;;;;;;21.35;12.15;;;;;;;16.77;100.00;98025.88;1676625;83;21003;-62
2021/07/21 00:57:55;;;;;;;22.65;11.97;;;;;;;16.73;100.00;98035.70;1690238;82;21189;-61
2021/07/21 01:00:23;;;;;;;26.70;12.55;;;;;;;16.72;100.00;98003.52;1685099;82;21564;-58
2021/07/21 01:02:53;;;;;;;26.02;12.88;;;;;;;16.70;100.00;98024.79;1682548;83;21069;-49
2021/07/21 01:05:25;;;;;;;26.35;12.88;;;;;;;16.67;100.00;98010.67;1679344;83;21056;-49
2021/07/21 01:07:54;;;;;;;26.30;13.25;;;;;;;16.68;100.00;98018.91;1687646;84;21598;-53
2021/07/21 01:10:24;;;;;;;25.52;14.35;;;;;;;16.66;100.00;98038.35;1679215;83;21148;-56
2021/07/21 01:13:02;;;;;;;24.70;13.48;;;;;;;16.63;100.00;98021.07;1658730;82;21529;-55
2021/07/21 01:16:05;;;;;;;24.65;12.20;;;;;;;16.63;100.00;98018.91;1672126;83;21059;-63
2021/07/21 01:18:44;;;;;;;25.77;13.55;;;;;;;16.63;100.00;98031.72;1681299;83;21112;-56
2021/07/21 01:21:26;;;;;;;25.85;12.60;;;;;;;16.58;100.00;98036.23;1692894;82;21067;-59
2021/07/21 01:24:29;;;;;;;27.48;12.80;;;;;;;16.45;100.00;98038.87;1684401;83;21102;-60
2021/07/21 01:27:29;;;;;;;22.67;11.88;;;;;;;16.29;100.00;98052.70;1685447;83;21691;-64
2021/07/21 01:30:01;;;;;;;25.23;13.28;;;;;;;16.10;100.00;98036.97;1681415;83;21090;-66
2021/07/21 01:32:31;;;;;;;23.70;12.98;;;;;;;15.97;100.00;98046.78;1687285;84;21106;-64
2021/07/21 01:35:11;;;;;;;26.37;12.63;;;;;;;15.85;100.00;98038.51;1684805;83;21130;-64
2021/07/21 01:37:41;;;;;;;23.80;11.83;;;;;;;15.78;100.00;98045.14;1623720;85;21080;-65
2021/07/21 01:40:15;;;;;;;22.37;12.47;;;;;;;15.69;100.00;98029.42;1625266;86;21120;-67
2021/07/21 01:42:43;;;;;;;24.43;12.98;;;;;;;15.69;100.00;98029.42;1585166;87;21099;-63
2021/07/21 01:45:11;;;;;;;25.02;13.18;;;;;;;15.67;100.00;98042.97;1595813;87;21193;-63
2021/07/21 01:47:42;;;;;;;26.83;12.50;;;;;;;15.64;100.00;98016.91;1629578;85;21079;-62
2021/07/21 01:50:12;;;;;;;27.62;12.68;;;;;;;15.61;100.00;98023.53;1588736;86;21621;-60
2021/07/21 01:52:40;;;;;;;24.37;12.30;;;;;;;15.63;100.00;98016.65;1688873;83;21572;-61
2021/07/21 01:55:10;;;;;;;22.98;12.43;;;;;;;15.61;100.00;98019.55;1688176;83;21062;-67
2021/07/21 01:57:40;;;;;;;24.55;12.13;;;;;;;15.62;100.00;98014.52;1693376;84;21529;-62
2021/07/21 02:00:15;;;;;;;25.02;12.93;;;;;;;15.60;100.00;98015.30;1680193;83;21077;-61
2021/07/21 02:02:52;;;;;;;25.08;12.05;;;;;;;15.58;100.00;98024.56;1686057;83;21105;-63
2021/07/21 02:05:25;;;;;;;19.90;12.13;;;;;;;15.57;100.00;98017.66;1689234;84;21577;-61
2021/07/21 02:07:53;;;;;;;26.27;12.03;;;;;;;15.55;100.00;98019.26;1687269;82;21022;-68
2021/07/21 02:10:25;;;;;;;22.58;12.43;;;;;;;15.55;100.00;98031.73;1670321;83;21566;-67
2021/07/21 02:13:07;;;;;;;22.82;11.97;;;;;;;15.55;100.00;98021.12;1679989;82;21097;-62
2021/07/21 02:15:40;;;;;;;20.65;11.90;;;;;;;15.55;100.00;98018.46;1697978;83;21050;-67
2021/07/21 02:18:10;;;;;;;19.80;11.20;;;;;;;15.55;100.00;98023.24;1696472;83;21023;-62
2021/07/21 02:20:39;;;;;;;23.27;11.93;;;;;;;15.57;100.00;98013.14;1678014;83;21031;-63
2021/07/21 02:23:08;;;;;;;26.12;12.33;;;;;;;15.58;100.00;98014.73;1679524;82;20990;-63
2021/07/21 02:25:44;;;;;;;23.80;12.18;;;;;;;15.57;100.00;98012.34;1682883;83;21058;-61
2021/07/21 02:28:14;;;;;;;26.12;12.73;;;;;;;15.57;100.00;98022.97;1688450;83;21094;-62
2021/07/21 02:30:48;;;;;;;23.55;12.00;;;;;;;15.57;100.00;98024.30;1674701;82;21522;-54
2021/07/21 02:33:24;;;;;;;22.60;12.60;;;;;;;15.57;100.00;98017.13;1648441;84;21059;-60
2021/07/21 02:35:52;;;;;;;24.95;12.25;;;;;;;15.53;100.00;98034.63;1686727;83;21070;-61
2021/07/21 02:38:20;;;;;;;23.22;12.60;;;;;;;15.49;100.00;98010.20;1678983;82;21601;-62
2021/07/21 02:40:49;;;;;;;24.07;12.73;;;;;;;15.46;100.00;98034.61;1682110;82;21614;-62
2021/07/21 02:43:19;;;;;;;26.42;12.88;;;;;;;15.45;100.00;98016.55;1690746;83;21095;-63
2021/07/21 02:45:47;;;;;;;26.95;12.85;;;;;;;15.48;100.00;98020.00;1682974;83;21529;-65
2021/07/21 02:48:15;;;;;;;21.65;11.68;;;;;;;15.47;100.00;98031.69;1683329;82;21118;-63
2021/07/21 02:50:47;;;;;;;25.08;12.85;;;;;;;15.47;100.00;98026.91;1682550;82;21613;-62
2021/07/21 02:53:23;;;;;;;23.32;12.68;;;;;;;15.44;100.00;98033.55;1679719;82;21546;-61
2021/07/21 02:56:10;;;;;;;22.00;12.05;;;;;;;15.44;100.00;98035.41;1637772;86;21073;-64
2021/07/21 02:58:53;;;;;;;22.82;12.53;;;;;;;15.46;100.00;98026.64;1670266;84;21099;-66
2021/07/21 03:01:21;;;;;;;22.85;12.65;;;;;;;15.46;100.00;98035.41;1696621;83;21046;-59
2021/07/21 03:03:50;;;;;;;23.67;12.47;;;;;;;15.45;100.00;98039.12;1698853;84;21074;-66
2021/07/21 03:06:18;;;;;;;23.52;12.40;;;;;;;15.47;100.00;98029.03;1676978;83;21545;-66
2021/07/21 03:08:50;;;;;;;22.85;12.73;;;;;;;15.46;100.00;98031.95;1672740;83;21114;-64
2021/07/21 03:11:26;;;;;;;21.20;12.88;;;;;;;15.49;100.00;98029.59;1693721;84;21098;-62
2021/07/21 03:14:02;;;;;;;24.18;13.93;;;;;;;15.51;100.00;98026.14;1683848;83;21052;-62
2021/07/21 03:16:32;;;;;;;26.50;14.10;;;;;;;15.53;100.00;98035.17;1689938;83;21522;-54
2021/07/21 03:19:02;;;;;;;24.95;13.93;;;;;;;15.56;100.00;98022.17;1698514;84;21644;-59
2021/07/21 03:21:32;;;;;;;22.35;13.55;;;;;;;15.59;100.00;98038.11;1685293;82;21553;-57
2021/07/21 03:24:04;;;;;;;24.20;13.25;;;;;;;15.60;100.00;98026.45;1653245;82;21124;-58
2021/07/21 03:26:45;;;;;;;25.95;13.62;;;;;;;15.60;100.00;98035.75;1670379;82;21096;-64
2021/07/21 03:29:14;;;;;;;21.75;13.70;;;;;;;15.61;100.00;98033.36;1692999;82;21545;-61
2021/07/21 03:31:43;;;;;;;27.00;13.70;;;;;;;15.64;100.00;98037.63;1685813;83;21493;-67
2021/07/21 03:34:13;;;;;;;23.60;13.55;;;;;;;15.68;100.00;98023.84;1673574;82;21102;-65
2021/07/21 03:36:47;;;;;;;24.80;13.68;;;;;;;15.71;100.00;98032.07;1681526;82;21010;-65
2021/07/21 03:39:26;;;;;;;22.07;13.10;;;;;;;15.71;100.00;98050.67;1659617;84;21179;-62
2021/07/21 03:42:13;;;;;;;25.72;13.62;;;;;;;15.73;100.00;98047.24;1692151;83;21631;-61
2021/07/21 03:44:42;;;;;;;21.75;12.93;;;;;;;15.76;100.00;98041.92;1679614;83;21549;-64
2021/07/21 03:47:10;;;;;;;26.30;13.25;;;;;;;15.78;100.00;98041.16;1674057;83;21093;-56
2021/07/21 03:49:37;;;;;;;22.77;13.13;;;;;;;15.81;100.00;98051.25;1657870;84;21581;-63
2021/07/21 03:52:16;;;;;;;24.00;13.90;;;;;;;15.83;100.00;98051.80;1650586;84;21074;-68
2021/07/21 03:55:04;;;;;;;19.82;12.47;;;;;;;15.83;100.00;98055.79;1687444;83;21510;-66
2021/07/21 03:57:36;;;;;;;23.07;13.48;;;;;;;15.86;100.00;98053.92;1693879;83;21086;-55
2021/07/21 04:00:14;;;;;;;24.37;13.20;;;;;;;15.88;100.00;98053.92;1650287;84;21026;-55
2021/07/21 04:02:45;;;;;;;21.23;12.45;;;;;;;15.88;100.00;98060.56;1679542;83;21011;-60
2021/07/21 04:05:15;;;;;;;24.02;13.03;;;;;;;15.89;100.00;98040.92;1676512;83;21574;-61
2021/07/21 04:07:45;;;;;;;25.68;13.10;;;;;;;15.91;100.00;98050.75;1670397;82;21059;-65
2021/07/21 04:10:14;;;;;;;23.55;12.93;;;;;;;15.93;100.00;98061.11;1671985;82;21035;-48
2021/07/21 04:12:49;;;;;;;22.73;13.40;;;;;;;15.93;100.00;98057.13;1681367;83;21141;-52
2021/07/21 04:15:23;;;;;;;23.00;13.83;;;;;;;15.93;100.00;98055.27;1674771;83;21047;-55
2021/07/21 04:17:57;;;;;;;23.00;13.22;;;;;;;15.97;100.00;98074.16;1686826;84;21050;-62
2021/07/21 04:20:27;;;;;;;24.57;14.90;;;;;;;15.96;100.00;98070.44;1678635;83;21047;-60
2021/07/21 04:22:56;;;;;;;23.60;13.62;;;;;;;15.95;100.00;98056.89;1680802;82;21066;-64
2021/07/21 04:25:24;;;;;;;25.35;14.47;;;;;;;16.01;100.00;98052.65;1629654;83;21058;-62
2021/07/21 04:27:53;;;;;;;23.27;14.80;;;;;;;16.04;100.00;98065.40;1684461;83;21055;-59
2021/07/21 04:30:22;;;;;;;21.48;13.75;;;;;;;16.05;100.00;98065.66;1658721;84;21085;-59
2021/07/21 04:32:53;;;;;;;21.50;12.98;;;;;;;16.06;100.00;98059.31;1678170;82;21095;-55
2021/07/21 04:35:22;;;;;;;24.37;14.90;;;;;;;16.08;100.00;98069.67;1684520;82;21569;-62
2021/07/21 04:38:04;;;;;;;24.30;13.05;;;;;;;16.10;100.00;98078.17;1687565;83;21098;-60
2021/07/21 04:40:38;;;;;;;21.70;13.22;;;;;;;16.09;100.00;98054.78;1682479;83;21069;-60
2021/07/21 04:43:07;;;;;;;24.00;13.48;;;;;;;16.12;100.00;98080.86;1667550;83;21047;-62
2021/07/21 04:45:35;;;;;;;24.15;13.53;;;;;;;16.13;100.00;98072.34;1685960;83;21086;-56
2021/07/21 04:48:03;;;;;;;22.80;12.73;;;;;;;16.14;100.00;98048.15;1692582;83;21043;-54
2021/07/21 04:50:33;;;;;;;23.98;13.90;;;;;;;16.13;100.00;98061.71;1665902;84;21067;-62
2021/07/21 04:53:01;;;;;;;24.65;13.88;;;;;;;16.15;100.00;98081.65;1672861;84;21023;-51
2021/07/21 04:55:32;;;;;;;23.77;13.78;;;;;;;16.13;100.00;98070.48;1627425;86;21016;-63
2021/07/21 04:57:59;;;;;;;21.75;13.65;;;;;;;16.16;100.00;98073.14;1648523;85;21537;-54
2021/07/21 05:00:29;;;;;;;21.48;12.25;;;;;;;16.19;100.00;98071.30;1659797;85;21229;-50
2021/07/21 05:02:59;;;;;;;20.60;12.23;;;;;;;16.23;100.00;98079.02;1637679;85;21122;-53
2021/07/21 05:05:27;;;;;;;20.10;12.58;;;;;;;16.26;100.00;98081.14;1654947;85;21621;-54
2021/07/21 05:08:03;;;;;;;20.92;11.83;;;;;;;16.30;100.00;98085.41;1642644;85;21030;-49
2021/07/21 05:10:34;;;;;;;21.57;12.20;;;;;;;16.32;100.00;98087.27;1617028;87;21028;-58
2021/07/21 05:13:03;;;;;;;21.17;12.58;;;;;;;16.34;100.00;98091.78;1636622;87;21142;-63
2021/07/21 05:15:33;;;;;;;20.80;12.55;;;;;;;16.36;100.00;98095.00;1638872;86;21167;-61
2021/07/21 05:18:09;;;;;;;22.20;13.20;;;;;;;16.36;100.00;98096.33;1637230;85;21089;-66
2021/07/21 05:20:48;;;;;;;23.18;12.50;;;;;;;16.38;100.00;98088.87;1620998;85;21109;-58
2021/07/21 05:23:17;;;;;;;22.55;12.18;;;;;;;16.40;100.00;98098.70;1632816;86;21113;-55
2021/07/21 05:25:49;;;;;;;21.70;13.45;;;;;;;16.42;100.00;98091.28;1666159;85;21077;-56
2021/07/21 05:28:20;;;;;;;19.27;12.10;;;;;;;16.42;100.00;98090.75;1655420;85;21022;-63
2021/07/21 05:30:49;;;;;;;21.27;13.00;;;;;;;16.44;100.00;98083.83;1646777;84;21034;-59
2021/07/21 05:33:17;;;;;;;22.15;13.58;;;;;;;16.45;100.00;98098.72;1669702;85;21762;-53
2021/07/21 05:35:47;;;;;;;21.02;13.25;;;;;;;16.48;100.00;98094.75;1651470;84;21029;-49
2021/07/21 05:38:17;;;;;;;23.35;13.88;;;;;;;16.52;100.00;98102.48;1665397;84;21070;-55
2021/07/21 05:40:44;;;;;;;24.05;13.38;;;;;;;16.53;100.00;98107.53;1646043;84;21116;-48
2021/07/21 05:43:16;;;;;;;22.13;13.50;;;;;;;16.53;100.00;98106.73;1648558;85;21137;-49
2021/07/21 05:45:49;;;;;;;20.75;13.58;;;;;;;16.53;100.00;98110.72;1637616;85;21074;-57
2021/07/21 05:48:18;;;;;;;21.97;13.50;;;;;;;16.53;100.00;98105.41;1621104;87;21054;-50
2021/07/21 05:51:04;;;;;;;21.65;13.53;;;;;;;16.53;100.00;98110.19;1636922;86;21064;-55
2021/07/21 05:53:33;;;;;;;21.90;14.25;;;;;;;16.56;100.00;98102.20;1640337;86;21107;-55
2021/07/21 05:56:01;;;;;;;23.12;14.83;;;;;;;16.57;100.00;98107.24;1647594;86;21007;-52
2021/07/21 05:58:30;;;;;;;22.52;14.10;;;;;;;16.59;100.00;98117.11;1640856;85;21058;-56
2021/07/21 06:00:59;;;;;;;22.05;14.58;;;;;;;16.59;100.00;98114.45;1639660;85;21541;-54
2021/07/21 06:03:27;;;;;;;25.72;15.18;;;;;;;16.65;100.00;98117.38;1643773;85;21065;-60
2021/07/21 06:06:00;;;;;;;22.52;14.53;;;;;;;16.68;100.00;98127.48;1640104;83;21042;-50
2021/07/21 06:08:29;;;;;;;22.62;14.85;;;;;;;16.71;100.00;98125.66;1686511;83;21066;-57
2021/07/21 06:10:58;;;;;;;24.80;16.25;;;;;;;16.72;100.00;98134.45;1687969;83;21060;-57
2021/07/21 06:13:27;;;;;;;24.12;16.00;;;;;;;16.69;100.00;98130.97;1681605;83;21068;-50
2021/07/21 06:15:56;;;;;;;22.73;15.45;;;;;;;16.68;100.00;98120.03;1671079;83;20998;-53
2021/07/21 06:18:24;;;;;;;24.75;16.93;;;;;;;16.70;100.00;98131.23;1671892;83;21081;-56
2021/07/21 06:20:53;;;;;;;25.75;17.25;;;;;;;16.70;100.00;98130.72;1680902;83;21105;-48
2021/07/21 06:23:22;;;;;;;24.25;16.57;;;;;;;16.68;100.00;98130.67;1646538;86;21066;-56
2021/07/21 06:25:52;;;;;;;;;;;;;;;16.67;100.00;98143.72;1678165;83;21050;-55
2021/07/21 06:28:28;;;;;;;26.50;18.85;;;;;;;16.66;100.00;98136.80;1678880;84;20143;-61
2021/07/21 06:30:56;;;;;;;25.75;18.73;;;;;;;16.65;100.00;98141.86;1648635;85;21079;-55
2021/07/21 06:33:25;;;;;;;26.87;20.77;;;;;;;16.68;100.00;98138.66;1626814;85;21046;-54
2021/07/21 06:35:53;;;;;;;25.45;19.02;;;;;;;16.67;100.00;98133.87;1632835;86;21078;-58
2021/07/21 06:38:23;;;;;;;27.27;19.87;;;;;;;16.69;100.00;98137.09;1633352;86;21580;-59
2021/07/21 06:41:08;;;;;;;26.20;19.40;;;;;;;16.71;100.00;98139.50;1632772;86;21074;-59
2021/07/21 06:43:41;;;;;;;26.15;18.48;;;;;;;16.68;100.00;98134.67;1628635;85;21584;-50
2021/07/21 06:46:12;;;;;;;;;;;;;;;16.70;100.00;98144.53;1675243;84;21094;-53
2021/07/21 06:48:42;;;;;;;24.10;17.92;;;;;;;16.69;100.00;98144.27;1606852;85;20208;-54
2021/07/21 06:51:09;;;;;;;27.85;18.98;;;;;;;16.65;100.00;98153.30;1605932;87;21067;-57
2021/07/21 06:53:37;;;;;;;23.25;17.10;;;;;;;16.63;100.00;98154.61;1624845;86;21322;-55
2021/07/21 06:56:14;;;;;;;23.80;16.62;;;;;;;16.62;100.00;98147.16;1648386;86;22612;-60
2021/07/21 06:58:50;;;;;;;24.90;16.52;;;;;;;16.61;100.00;98155.42;1652731;86;21027;-57
2021/07/21 07:01:19;;;;;;;24.18;16.07;;;;;;;16.59;100.00;98162.34;1650936;85;21086;-58
2021/07/21 07:03:52;;;;;;;25.77;16.50;;;;;;;16.57;100.00;98161.78;1646727;83;21074;-52
2021/07/21 07:06:38;;;;;;;24.87;16.40;;;;;;;16.54;100.00;98153.02;1707463;83;21046;-55
2021/07/21 07:09:25;;;;;;;24.27;15.25;;;;;;;16.54;100.00;98161.53;1701392;83;21137;-50
2021/07/21 07:12:03;;;;;;;22.87;14.63;;;;;;;16.49;100.00;98172.95;1673842;84;21165;-47
2021/07/21 07:14:31;;;;;;;21.23;13.23;;;;;;;16.43;100.00;98185.97;1674595;84;21065;-49
2021/07/21 07:17:01;;;;;;;22.48;13.38;;;;;;;16.32;100.00;98171.05;1684487;81;22146;-53
2021/07/21 07:19:29;;;;;;;21.57;13.20;;;;;;;16.26;100.00;98172.09;1679893;84;21593;-49
2021/07/21 07:21:59;;;;;;;21.17;12.78;;;;;;;16.28;100.00;98174.74;1679788;83;21144;-55
2021/07/21 07:24:28;;;;;;;22.30;12.43;;;;;;;16.26;100.00;98171.55;1693832;82;21288;-51
2021/07/21 07:27:00;;;;;;;19.52;11.90;;;;;;;16.36;100.00;98178.78;1679712;84;21003;-55
2021/07/21 07:29:28;;;;;;;19.35;10.70;;;;;;;16.42;100.00;98177.73;1609760;87;21047;-53
2021/07/21 07:31:57;;;;;;;17.27;10.65;;;;;;;16.47;100.00;98177.75;1653177;86;21581;-50
2021/07/21 07:34:29;;;;;;;19.25;10.00;;;;;;;16.49;100.00;98182.80;1635082;86;21598;-57
2021/07/21 07:37:01;;;;;;;16.32;9.13;;;;;;;16.44;100.00;98183.05;1649021;84;21602;-60
2021/07/21 07:39:30;;;;;;;20.45;9.75;;;;;;;16.37;100.00;98176.38;1640988;84;21114;-54
2021/07/21 07:42:03;;;;;;;16.93;9.70;;;;;;;16.36;100.00;98180.11;1576856;87;21011;-55
2021/07/21 07:44:40;;;;;;;15.72;8.98;;;;;;;16.40;100.00;98189.97;1601033;87;21388;-53
2021/07/21 07:47:11;;;;;;;18.35;9.75;;;;;;;16.40;100.00;98189.97;1584358;86;21067;-50
2021/07/21 07:49:42;;;;;;;17.15;9.88;;;;;;;16.51;100.00;98196.09;1594890;87;21132;-51
2021/07/21 07:52:11;;;;;;;17.83;9.33;;;;;;;16.57;100.00;98185.73;1679297;84;21038;-49
2021/07/21 07:54:41;;;;;;;15.28;8.48;;;;;;;16.64;100.00;98193.48;1676014;83;21756;-55
2021/07/21 07:57:11;;;;;;;17.63;9.20;;;;;;;16.58;100.00;98194.54;1587405;87;21555;-49
2021/07/21 07:59:41;;;;;;;17.52;8.80;;;;;;;16.59;100.00;98198.80;1624638;86;21090;-59
2021/07/21 08:02:10;;;;;;;18.67;8.75;;;;;;;16.68;100.00;98203.32;1657222;85;21101;-57
2021/07/21 08:04:37;;;;;;;17.50;8.48;;;;;;;16.73;100.00;98202.03;1597269;88;21098;-48
2021/07/21 08:07:06;;;;;;;17.70;8.95;;;;;;;16.87;100.00;98200.22;1615674;87;21593;-56
2021/07/21 08:09:34;;;;;;;18.10;8.75;;;;;;;16.94;100.00;98212.73;1647505;85;21169;-60
2021/07/21 08:12:02;;;;;;;17.67;8.50;;;;;;;16.96;100.00;98209.26;1634679;85;21070;-51
2021/07/21 08:14:32;;;;;;;16.62;8.35;;;;;;;16.99;100.00;98209.55;1643454;84;21517;-60
2021/07/21 08:17:03;;;;;;;15.28;8.08;;;;;;;17.08;100.00;98224.98;1646849;84;21583;-54
2021/07/21 08:19:31;;;;;;;17.30;8.57;;;;;;;17.14;100.00;98222.05;1645402;86;21107;-53
2021/07/21 08:22:00;;;;;;;15.63;8.10;;;;;;;17.22;100.00;98228.20;1623112;85;21414;-57
2021/07/21 08:24:28;;;;;;;17.98;8.25;;;;;;;17.31;100.00;98236.98;1644767;85;21097;-51
2021/07/21 08:26:56;;;;;;;18.30;7.70;;;;;;;17.23;100.00;98231.13;1634258;85;21211;-54
2021/07/21 08:29:24;;;;;;;18.62;8.35;;;;;;;17.32;100.00;98227.92;1595977;86;21081;-58
2021/07/21 08:31:54;;;;;;;16.93;8.08;;;;;;;17.43;100.00;98235.67;1594807;86;21055;-57
2021/07/21 08:34:24;;;;;;;12.95;7.20;;;;;;;17.51;100.00;98229.00;1589836;87;22241;-56
2021/07/21 08:36:52;;;;;;;13.88;7.60;;;;;;;17.43;100.00;98230.34;1617941;86;21151;-46
2021/07/21 08:39:21;;;;;;;15.32;7.62;;;;;;;17.42;100.00;98239.38;1620816;87;21094;-49
2021/07/21 08:41:51;;;;;;;16.07;7.25;;;;;;;17.47;100.00;98250.03;1640763;85;21073;-55
2021/07/21 08:44:18;;;;;;;19.05;8.60;;;;;;;17.46;100.00;98244.98;1641986;86;21053;-52
2021/07/21 08:46:46;;;;;;;15.30;8.58;;;;;;;17.55;100.00;98260.71;1644451;86;21015;-51
2021/07/21 08:49:14;;;;;;;14.30;8.10;;;;;;;17.51;100.00;98252.44;1664164;85;21035;-62
2021/07/21 08:51:42;;;;;;;13.98;7.53;;;;;;;17.61;100.00;98251.65;1653576;84;21042;-53
2021/07/21 08:54:10;;;;;;;14.40;7.80;;;;;;;17.80;100.00;98263.91;1657494;85;21015;-48
2021/07/21 08:56:39;;;;;;;15.60;7.60;;;;;;;17.88;100.00;98253.22;1629222;86;21080;-53
2021/07/21 08:59:07;;;;;;;15.53;7.92;;;;;;;17.86;100.00;98257.50;1629098;87;21076;-52
2021/07/21 09:01:36;;;;;;;15.60;7.87;;;;;;;17.95;100.00;98261.73;1584335;85;21108;-66
2021/07/21 09:04:04;;;;;;;14.85;7.65;;;;;;;18.00;100.00;98253.19;1597975;87;21008;-52
2021/07/21 09:06:32;;;;;;;14.95;7.83;;;;;;;18.01;100.00;98258.81;1626265;87;21098;-53
2021/07/21 09:09:01;;;;;;;14.35;7.87;;;;;;;18.05;100.00;98263.85;1648699;85;21093;-52
2021/07/21 09:11:33;;;;;;;17.42;7.28;;;;;;;18.14;100.00;98267.31;1655509;85;21098;-53
2021/07/21 09:14:02;;;;;;;17.17;7.12;;;;;;;18.20;100.00;98263.56;1610922;86;21570;-48
2021/07/21 09:16:30;;;;;;;17.12;7.28;;;;;;;18.08;100.00;98257.73;1620989;85;21155;-52
2021/07/21 09:18:58;;;;;;;13.50;7.20;;;;;;;18.07;100.00;98259.60;1616029;86;21115;-49
2021/07/21 09:21:27;;;;;;;13.78;7.62;;;;;;;18.05;100.00;98280.39;1612707;87;21052;-53
2021/07/21 09:24:01;;;;;;;17.25;7.12;;;;;;;17.97;100.00;98269.75;1621348;87;21508;-54
2021/07/21 09:26:34;;;;;;;11.12;6.60;;;;;;;18.01;100.00;98249.48;1608055;85;21015;-50
2021/07/21 09:29:02;;;;;;;16.37;7.10;;;;;;;18.11;100.00;98277.17;1615002;87;21073;-60
2021/07/21 09:31:39;;;;;;;14.45;7.80;;;;;;;18.04;100.00;98262.26;1614456;86;21506;-63
2021/07/21 09:34:22;;;;;;;10.68;6.97;;;;;;;17.98;100.00;98271.34;1626812;85;21175;-53
2021/07/21 09:37:08;;;;;;;12.10;6.45;;;;;;;17.98;100.00;98274.55;1694238;84;21054;-49
2021/07/21 09:39:40;;;;;;;15.72;7.30;;;;;;;18.06;100.00;98279.31;1650232;85;21817;-64
2021/07/21 09:42:09;;;;;;;15.03;6.95;;;;;;;18.15;100.00;98259.58;1644051;84;21525;-53
2021/07/21 09:44:40;;;;;;;16.60;6.97;;;;;;;18.22;100.00;98281.42;1641196;85;21027;-50
2021/07/21 09:47:18;;;;;;;13.68;7.00;;;;;;;18.19;100.00;98265.44;1638025;86;21574;-58
2021/07/21 09:49:46;;;;;;;10.50;6.40;;;;;;;18.24;100.00;98276.63;1635455;87;21177;-54
2021/07/21 09:52:22;;;;;;;14.28;6.90;;;;;;;18.32;100.00;98276.06;1628619;87;21573;-55
2021/07/21 09:55:10;;;;;;;14.38;6.37;;;;;;;18.49;100.00;98281.87;1627716;87;21063;-59
2021/07/21 09:57:39;;;;;;;13.03;6.58;;;;;;;18.51;100.00;98277.58;1632879;85;21591;-57
2021/07/21 10:00:27;;;;;;;12.37;6.50;;;;;;;18.58;100.00;98281.58;1633166;86;21095;-54
2021/07/21 10:03:24;;;;;;;14.30;5.85;;;;;;;18.75;100.00;98276.44;1636128;86;21094;-50
2021/07/21 10:06:07;;;;;;;12.30;6.37;;;;;;;18.80;100.00;98275.08;1618743;86;21128;-59
2021/07/21 10:08:52;;;;;;;11.45;6.30;;;;;;;18.71;100.00;98280.75;1653160;86;21122;-58
2021/07/21 10:11:35;;;;;;;10.63;5.92;;;;;;;18.62;100.00;98288.48;1644303;86;21019;-57
2021/07/21 10:14:09;;;;;;;10.30;6.00;;;;;;;18.69;100.00;98282.88;1651553;86;21531;-56
2021/07/21 10:16:47;;;;;;;18.82;6.40;;;;;;;18.80;100.00;98283.09;1638581;84;21090;-49
2021/07/21 10:19:27;;;;;;;11.75;5.75;;;;;;;18.84;100.00;98290.28;1670784;83;21209;-52
2021/07/21 10:22:01;;;;;;;14.15;6.30;;;;;;;18.87;100.00;98283.61;1677689;83;21027;-47
2021/07/21 10:24:33;;;;;;;9.08;5.35;;;;;;;18.93;100.00;98299.87;1657879;84;21048;-46
2021/07/21 10:27:00;;;;;;;8.88;5.37;;;;;;;18.77;100.00;98287.13;1682790;83;21019;-56
2021/07/21 10:29:28;;;;;;;11.45;5.50;;;;;;;18.69;100.00;98290.88;1685610;83;21147;-57
2021/07/21 10:31:57;;;;;;;11.68;5.75;;;;;;;18.82;100.00;98299.66;1667124;83;21037;-53
2021/07/21 10:34:25;;;;;;;8.70;5.67;;;;;;;18.94;100.00;98306.80;1673808;83;21062;-58
2021/07/21 10:36:53;;;;;;;16.32;5.60;;;;;;;18.91;100.00;98299.32;1659886;84;21526;-59
2021/07/21 10:39:35;;;;;;;9.73;5.78;;;;;;;18.81;100.00;98303.41;1672350;83;21077;-62
2021/07/21 10:42:14;;;;;;;9.35;5.75;;;;;;;18.86;100.00;98301.22;1665502;83;21501;-54
2021/07/21 10:44:56;;;;;;;12.07;5.42;;;;;;;18.83;100.00;98306.05;1657564;84;21062;-60
2021/07/21 10:47:31;;;;;;;10.75;5.53;;;;;;;18.89;100.00;98310.83;1674180;83;21166;-65
2021/07/21 10:50:08;;;;;;;12.40;5.78;;;;;;;18.87;100.00;98304.14;1675727;82;21015;-65
2021/07/21 10:55:28;;;;;;;11.30;5.50;;;;;;;18.79;100.00;98310.33;1667226;83;21647;-59
2021/07/21 11:00:54;;;;;;;11.20;5.10;;;;;;;19.03;100.00;98319.02;1674550;83;21109;-66
2021/07/21 11:03:28;;;;;;;10.15;5.50;;;;;;;19.08;100.00;98323.80;1670981;83;21093;-56
2021/07/21 11:06:07;;;;;;;12.73;5.58;;;;;;;19.05;100.00;98332.37;1697391;82;21032;-63
2021/07/21 11:08:51;;;;;;;9.58;5.47;;;;;;;19.03;100.00;98328.37;1684568;82;21169;-56
2021/07/21 11:11:20;;;;;;;12.78;5.97;;;;;;;19.10;100.00;98327.02;1677105;83;21089;-56
2021/07/21 11:13:57;;;;;;;8.60;5.50;;;;;;;19.16;100.00;98329.12;1684181;83;22902;-55
2021/07/21 11:16:46;;;;;;;8.98;5.45;;;;;;;19.24;100.00;98329.06;1673661;83;21518;-50
2021/07/21 11:19:40;;;;;;;10.63;5.40;;;;;;;19.25;100.00;98325.31;1676795;83;21501;-49
2021/07/21 11:22:10;;;;;;;12.05;5.50;;;;;;;19.25;100.00;98332.79;1668054;82;21071;-58
2021/07/21 11:25:17;;;;;;;14.10;5.97;;;;;;;19.34;100.00;98325.00;1631077;86;21093;-55
2021/07/21 11:28:04;;;;;;;10.95;5.60;;;;;;;19.41;100.00;98324.69;1626314;85;21078;-54
2021/07/21 11:30:57;;;;;;;15.45;5.72;;;;;;;19.35;100.00;98333.27;1625384;86;21065;-62
2021/07/21 11:33:55;;;;;;;14.15;5.72;;;;;;;19.37;100.00;98325.77;1629638;85;21104;-61
2021/07/21 11:36:49;;;;;;;13.08;5.90;;;;;;;19.49;100.00;98315.52;1640394;86;21085;-53
2021/07/21 11:39:56;;;;;;;8.90;5.15;;;;;;;19.47;100.00;98338.27;1615780;86;21098;-55
2021/07/21 11:42:30;;;;;;;13.25;5.60;;;;;;;19.52;100.00;98336.36;1628092;85;21107;-59
2021/07/21 11:45:12;;;;;;;12.55;5.78;;;;;;;19.53;100.00;98334.48;1632755;86;21150;-64